sensor_id;sensor_type;location;lat;lon;timestamp;temperature;humidity
16999;DHT22;10211;49.476;11.010;2023-03-11T00:01:40;2.90;99.90
16999;DHT22;10211;49.476;11.010;2023-03-11T00:04:06;2.90;99.90
16999;DHT22;10211;49.476;11.010;2023-03-11T00:06:33;2.90;99.90
16999;DHT22;10211;49.476;11.010;2023-03-11T00:09:00;2.80;99.90
16999;DHT22;10211;49.476;11.010;2023-03-11T00:11:27;2.80;99.90
16999;DHT22;10211;49.476;11.010;2023-03-11T00:13:54;2.80;99.90
16999;DHT22;10211;49.476;11.010;2023-03-11T00:16:22;2.80;99.90
16999;DHT22;10211;49.476;11.010;2023-03-11T00:18:49;2.70;99.90
16999;DHT22;10211;49.476;11.010;2023-03-11T00:21:17;2.70;99.90
16999;DHT22;10211;49.476;11.010;2023-03-11T00:23:44;2.70;99.90
16999;DHT22;10211;49.476;11.010;2023-03-11T00:26:11;2.70;99.90
16999;DHT22;10211;49.476;11.010;2023-03-11T00:28:38;2.70;99.90
16999;DHT22;10211;49.476;11.010;2023-03-11T00:31:05;2.60;99.90
16999;DHT22;10211;49.476;11.010;2023-03-11T00:33:33;2.60;99.90
16999;DHT22;10211;49.476;11.010;2023-03-11T00:36:00;2.50;99.90
16999;DHT22;10211;49.476;11.010;2023-03-11T00:38:26;2.50;99.90
16999;DHT22;10211;49.476;11.010;2023-03-11T00:40:53;2.50;99.90
16999;DHT22;10211;49.476;11.010;2023-03-11T00:43:20;2.50;99.90
16999;DHT22;10211;49.476;11.010;2023-03-11T00:45:47;2.50;99.90
16999;DHT22;10211;49.476;11.010;2023-03-11T00:48:13;2.50;99.90
16999;DHT22;10211;49.476;11.010;2023-03-11T00:50:41;2.50;99.90
16999;DHT22;10211;49.476;11.010;2023-03-11T00:53:10;2.50;99.90
16999;DHT22;10211;49.476;11.010;2023-03-11T00:55:37;2.50;99.90
16999;DHT22;10211;49.476;11.010;2023-03-11T00:58:05;2.50;99.90
16999;DHT22;10211;49.476;11.010;2023-03-11T01:00:32;2.50;99.90
16999;DHT22;10211;49.476;11.010;2023-03-11T01:03:00;2.40;99.90
16999;DHT22;10211;49.476;11.010;2023-03-11T01:05:29;2.40;99.90
16999;DHT22;10211;49.476;11.010;2023-03-11T01:07:58;2.40;99.90
16999;DHT22;10211;49.476;11.010;2023-03-11T01:10:25;2.30;99.90
16999;DHT22;10211;49.476;11.010;2023-03-11T01:12:52;2.30;99.90
16999;DHT22;10211;49.476;11.010;2023-03-11T01:15:21;2.30;99.90
16999;DHT22;10211;49.476;11.010;2023-03-11T01:17:48;2.20;99.90
16999;DHT22;10211;49.476;11.010;2023-03-11T01:20:15;2.20;99.90
16999;DHT22;10211;49.476;11.010;2023-03-11T01:22:42;2.10;99.90
16999;DHT22;10211;49.476;11.010;2023-03-11T01:25:11;2.00;99.90
16999;DHT22;10211;49.476;11.010;2023-03-11T01:27:39;1.90;99.90
16999;DHT22;10211;49.476;11.010;2023-03-11T01:30:07;1.90;99.90
16999;DHT22;10211;49.476;11.010;2023-03-11T01:32:33;1.90;99.90
16999;DHT22;10211;49.476;11.010;2023-03-11T01:35:00;1.90;99.90
16999;DHT22;10211;49.476;11.010;2023-03-11T01:37:27;1.80;99.90
16999;DHT22;10211;49.476;11.010;2023-03-11T01:39:54;1.80;99.90
16999;DHT22;10211;49.476;11.010;2023-03-11T01:42:22;1.80;99.90
16999;DHT22;10211;49.476;11.010;2023-03-11T01:44:48;1.90;99.90
16999;DHT22;10211;49.476;11.010;2023-03-11T01:47:37;1.90;99.90
16999;DHT22;10211;49.476;11.010;2023-03-11T01:50:07;1.90;99.90
16999;DHT22;10211;49.476;11.010;2023-03-11T01:52:36;1.80;99.90
16999;DHT22;10211;49.476;11.010;2023-03-11T01:55:05;1.90;99.90
16999;DHT22;10211;49.476;11.010;2023-03-11T01:57:34;1.90;99.90
16999;DHT22;10211;49.476;11.010;2023-03-11T02:00:03;1.80;99.90
16999;DHT22;10211;49.476;11.010;2023-03-11T02:02:34;1.80;99.90
16999;DHT22;10211;49.476;11.010;2023-03-11T02:05:03;1.80;99.90
16999;DHT22;10211;49.476;11.010;2023-03-11T02:07:30;1.80;99.90
16999;DHT22;10211;49.476;11.010;2023-03-11T02:09:57;1.80;99.90
16999;DHT22;10211;49.476;11.010;2023-03-11T02:12:24;1.80;99.90
16999;DHT22;10211;49.476;11.010;2023-03-11T02:14:52;1.80;99.90
16999;DHT22;10211;49.476;11.010;2023-03-11T02:17:19;1.80;99.90
16999;DHT22;10211;49.476;11.010;2023-03-11T02:20:02;1.80;99.90
16999;DHT22;10211;49.476;11.010;2023-03-11T02:22:32;1.70;99.90
16999;DHT22;10211;49.476;11.010;2023-03-11T02:25:02;1.70;99.90
16999;DHT22;10211;49.476;11.010;2023-03-11T02:27:33;1.70;99.90
16999;DHT22;10211;49.476;11.010;2023-03-11T02:30:03;1.70;99.90
16999;DHT22;10211;49.476;11.010;2023-03-11T02:32:30;1.70;99.90
16999;DHT22;10211;49.476;11.010;2023-03-11T02:34:57;1.70;99.90
16999;DHT22;10211;49.476;11.010;2023-03-11T02:37:24;1.70;99.90
16999;DHT22;10211;49.476;11.010;2023-03-11T02:39:52;1.60;99.90
16999;DHT22;10211;49.476;11.010;2023-03-11T02:42:22;1.60;99.90
16999;DHT22;10211;49.476;11.010;2023-03-11T02:44:55;1.60;99.90
16999;DHT22;10211;49.476;11.010;2023-03-11T02:47:24;1.60;99.90
16999;DHT22;10211;49.476;11.010;2023-03-11T02:49:53;1.60;99.90
16999;DHT22;10211;49.476;11.010;2023-03-11T02:52:21;1.60;99.90
16999;DHT22;10211;49.476;11.010;2023-03-11T02:54:48;1.60;99.90
16999;DHT22;10211;49.476;11.010;2023-03-11T02:57:15;1.60;99.90
16999;DHT22;10211;49.476;11.010;2023-03-11T02:59:42;1.60;99.90
16999;DHT22;10211;49.476;11.010;2023-03-11T03:02:12;1.60;99.90
16999;DHT22;10211;49.476;11.010;2023-03-11T03:04:39;1.60;99.90
16999;DHT22;10211;49.476;11.010;2023-03-11T03:07:06;1.50;99.90
16999;DHT22;10211;49.476;11.010;2023-03-11T03:09:33;1.50;99.90
16999;DHT22;10211;49.476;11.010;2023-03-11T03:12:01;1.50;99.90
16999;DHT22;10211;49.476;11.010;2023-03-11T03:14:28;1.50;99.90
16999;DHT22;10211;49.476;11.010;2023-03-11T03:16:55;1.40;99.90
16999;DHT22;10211;49.476;11.010;2023-03-11T03:19:23;1.40;99.90
16999;DHT22;10211;49.476;11.010;2023-03-11T03:21:49;1.40;99.90
16999;DHT22;10211;49.476;11.010;2023-03-11T03:24:16;1.40;99.90
16999;DHT22;10211;49.476;11.010;2023-03-11T03:26:43;1.30;99.90
16999;DHT22;10211;49.476;11.010;2023-03-11T03:29:09;1.30;99.90
16999;DHT22;10211;49.476;11.010;2023-03-11T03:31:37;1.30;99.90
16999;DHT22;10211;49.476;11.010;2023-03-11T03:34:04;1.30;99.90
16999;DHT22;10211;49.476;11.010;2023-03-11T03:36:32;1.30;99.90
16999;DHT22;10211;49.476;11.010;2023-03-11T03:38:59;1.30;99.90
16999;DHT22;10211;49.476;11.010;2023-03-11T03:41:26;1.30;99.90
16999;DHT22;10211;49.476;11.010;2023-03-11T03:43:53;1.30;99.90
16999;DHT22;10211;49.476;11.010;2023-03-11T03:46:20;1.30;99.90
16999;DHT22;10211;49.476;11.010;2023-03-11T03:48:47;1.30;99.90
16999;DHT22;10211;49.476;11.010;2023-03-11T03:51:14;1.30;99.90
16999;DHT22;10211;49.476;11.010;2023-03-11T03:53:42;1.30;99.90
16999;DHT22;10211;49.476;11.010;2023-03-11T03:56:12;1.30;99.90
16999;DHT22;10211;49.476;11.010;2023-03-11T03:58:39;1.30;99.90
16999;DHT22;10211;49.476;11.010;2023-03-11T04:01:07;1.30;99.90
16999;DHT22;10211;49.476;11.010;2023-03-11T04:03:34;1.30;99.90
16999;DHT22;10211;49.476;11.010;2023-03-11T04:06:06;1.30;99.90
16999;DHT22;10211;49.476;11.010;2023-03-11T04:08:33;1.20;99.90
16999;DHT22;10211;49.476;11.010;2023-03-11T04:11:02;1.20;99.90
16999;DHT22;10211;49.476;11.010;2023-03-11T04:13:29;1.30;99.90
16999;DHT22;10211;49.476;11.010;2023-03-11T04:15:55;1.20;99.90
16999;DHT22;10211;49.476;11.010;2023-03-11T04:18:22;1.20;99.90
16999;DHT22;10211;49.476;11.010;2023-03-11T04:20:49;1.20;99.90
16999;DHT22;10211;49.476;11.010;2023-03-11T04:23:16;1.10;99.90
16999;DHT22;10211;49.476;11.010;2023-03-11T04:25:42;1.10;99.90
16999;DHT22;10211;49.476;11.010;2023-03-11T04:28:11;1.10;99.90
16999;DHT22;10211;49.476;11.010;2023-03-11T04:30:38;1.00;99.90
16999;DHT22;10211;49.476;11.010;2023-03-11T04:33:05;1.00;99.90
16999;DHT22;10211;49.476;11.010;2023-03-11T04:35:32;1.00;99.90
16999;DHT22;10211;49.476;11.010;2023-03-11T04:37:59;0.90;99.90
16999;DHT22;10211;49.476;11.010;2023-03-11T04:40:26;0.90;99.90
16999;DHT22;10211;49.476;11.010;2023-03-11T04:42:53;0.90;99.90
16999;DHT22;10211;49.476;11.010;2023-03-11T04:45:21;0.80;99.90
16999;DHT22;10211;49.476;11.010;2023-03-11T04:47:48;0.80;99.90
16999;DHT22;10211;49.476;11.010;2023-03-11T04:50:15;0.70;99.90
16999;DHT22;10211;49.476;11.010;2023-03-11T04:52:42;0.70;99.90
16999;DHT22;10211;49.476;11.010;2023-03-11T04:55:09;0.60;99.90
16999;DHT22;10211;49.476;11.010;2023-03-11T04:57:38;0.70;99.90
16999;DHT22;10211;49.476;11.010;2023-03-11T05:00:06;0.70;99.90
16999;DHT22;10211;49.476;11.010;2023-03-11T05:02:38;0.80;99.90
16999;DHT22;10211;49.476;11.010;2023-03-11T05:05:06;0.80;99.90
16999;DHT22;10211;49.476;11.010;2023-03-11T05:07:33;0.90;99.90
16999;DHT22;10211;49.476;11.010;2023-03-11T05:10:00;0.90;99.90
16999;DHT22;10211;49.476;11.010;2023-03-11T05:12:27;0.90;99.90
16999;DHT22;10211;49.476;11.010;2023-03-11T05:14:54;0.90;99.90
16999;DHT22;10211;49.476;11.010;2023-03-11T05:17:20;0.80;99.90
16999;DHT22;10211;49.476;11.010;2023-03-11T05:19:50;0.70;99.90
16999;DHT22;10211;49.476;11.010;2023-03-11T05:22:18;0.70;99.90
16999;DHT22;10211;49.476;11.010;2023-03-11T05:24:45;0.60;99.90
16999;DHT22;10211;49.476;11.010;2023-03-11T05:27:12;0.50;99.90
16999;DHT22;10211;49.476;11.010;2023-03-11T05:29:42;0.50;99.90
16999;DHT22;10211;49.476;11.010;2023-03-11T05:32:09;0.50;99.90
16999;DHT22;10211;49.476;11.010;2023-03-11T05:34:36;0.50;99.90
16999;DHT22;10211;49.476;11.010;2023-03-11T05:37:04;0.50;99.90
16999;DHT22;10211;49.476;11.010;2023-03-11T05:39:32;0.50;99.90
16999;DHT22;10211;49.476;11.010;2023-03-11T05:41:59;0.60;99.90
16999;DHT22;10211;49.476;11.010;2023-03-11T05:44:25;0.60;99.90
16999;DHT22;10211;49.476;11.010;2023-03-11T05:46:52;0.70;99.90
16999;DHT22;10211;49.476;11.010;2023-03-11T05:49:19;0.70;99.90
16999;DHT22;10211;49.476;11.010;2023-03-11T05:51:46;0.70;99.90
16999;DHT22;10211;49.476;11.010;2023-03-11T05:54:15;0.70;99.90
16999;DHT22;10211;49.476;11.010;2023-03-11T05:56:42;0.70;99.90
16999;DHT22;10211;49.476;11.010;2023-03-11T05:59:10;0.80;99.90
16999;DHT22;10211;49.476;11.010;2023-03-11T06:01:37;0.80;99.90
16999;DHT22;10211;49.476;11.010;2023-03-11T06:04:04;0.90;99.90
16999;DHT22;10211;49.476;11.010;2023-03-11T06:06:31;0.90;99.90
16999;DHT22;10211;49.476;11.010;2023-03-11T06:08:58;1.00;99.90
16999;DHT22;10211;49.476;11.010;2023-03-11T06:11:27;1.00;99.90
16999;DHT22;10211;49.476;11.010;2023-03-11T06:13:55;1.10;99.90
16999;DHT22;10211;49.476;11.010;2023-03-11T06:16:22;1.10;99.90
16999;DHT22;10211;49.476;11.010;2023-03-11T06:18:50;1.20;99.90
16999;DHT22;10211;49.476;11.010;2023-03-11T06:21:18;1.20;99.90
16999;DHT22;10211;49.476;11.010;2023-03-11T06:23:45;1.20;99.90
16999;DHT22;10211;49.476;11.010;2023-03-11T06:26:13;1.20;99.90
16999;DHT22;10211;49.476;11.010;2023-03-11T06:28:42;1.20;99.90
16999;DHT22;10211;49.476;11.010;2023-03-11T06:31:11;1.30;99.90
16999;DHT22;10211;49.476;11.010;2023-03-11T06:33:39;1.30;99.90
16999;DHT22;10211;49.476;11.010;2023-03-11T06:36:06;1.30;99.90
16999;DHT22;10211;49.476;11.010;2023-03-11T06:38:33;1.30;99.90
16999;DHT22;10211;49.476;11.010;2023-03-11T06:41:01;1.30;99.90
16999;DHT22;10211;49.476;11.010;2023-03-11T06:43:29;1.30;99.90
16999;DHT22;10211;49.476;11.010;2023-03-11T06:45:57;1.30;99.90
16999;DHT22;10211;49.476;11.010;2023-03-11T06:48:24;1.30;99.90
16999;DHT22;10211;49.476;11.010;2023-03-11T06:50:55;1.30;99.90
16999;DHT22;10211;49.476;11.010;2023-03-11T06:53:22;1.30;99.90
16999;DHT22;10211;49.476;11.010;2023-03-11T06:55:59;1.30;99.90
16999;DHT22;10211;49.476;11.010;2023-03-11T06:58:27;1.30;99.90
16999;DHT22;10211;49.476;11.010;2023-03-11T07:00:54;1.30;99.90
16999;DHT22;10211;49.476;11.010;2023-03-11T07:03:22;1.30;99.90
16999;DHT22;10211;49.476;11.010;2023-03-11T07:05:50;1.30;99.90
16999;DHT22;10211;49.476;11.010;2023-03-11T07:08:16;1.40;99.90
16999;DHT22;10211;49.476;11.010;2023-03-11T07:10:43;1.50;99.90
16999;DHT22;10211;49.476;11.010;2023-03-11T07:13:10;1.60;99.90
16999;DHT22;10211;49.476;11.010;2023-03-11T07:15:37;1.90;99.90
16999;DHT22;10211;49.476;11.010;2023-03-11T07:18:05;2.40;99.90
16999;DHT22;10211;49.476;11.010;2023-03-11T07:20:33;2.70;99.90
16999;DHT22;10211;49.476;11.010;2023-03-11T07:23:00;3.00;99.90
16999;DHT22;10211;49.476;11.010;2023-03-11T07:25:27;3.30;99.90
16999;DHT22;10211;49.476;11.010;2023-03-11T07:27:54;3.90;99.90
16999;DHT22;10211;49.476;11.010;2023-03-11T07:30:20;3.90;99.90
16999;DHT22;10211;49.476;11.010;2023-03-11T07:32:47;4.10;99.90
16999;DHT22;10211;49.476;11.010;2023-03-11T07:35:14;4.30;99.90
16999;DHT22;10211;49.476;11.010;2023-03-11T07:37:43;4.60;99.90
16999;DHT22;10211;49.476;11.010;2023-03-11T07:40:11;4.50;99.90
16999;DHT22;10211;49.476;11.010;2023-03-11T07:42:38;4.20;99.90
16999;DHT22;10211;49.476;11.010;2023-03-11T07:45:05;4.00;99.90
16999;DHT22;10211;49.476;11.010;2023-03-11T07:47:32;3.70;99.90
16999;DHT22;10211;49.476;11.010;2023-03-11T07:49:59;3.50;99.90
16999;DHT22;10211;49.476;11.010;2023-03-11T07:52:29;3.30;99.90
16999;DHT22;10211;49.476;11.010;2023-03-11T07:54:57;3.20;99.90
16999;DHT22;10211;49.476;11.010;2023-03-11T07:57:23;3.10;99.90
16999;DHT22;10211;49.476;11.010;2023-03-11T07:59:50;3.00;99.90
16999;DHT22;10211;49.476;11.010;2023-03-11T08:02:17;2.90;99.90
16999;DHT22;10211;49.476;11.010;2023-03-11T08:04:44;2.90;99.90
16999;DHT22;10211;49.476;11.010;2023-03-11T08:07:12;3.00;99.90
16999;DHT22;10211;49.476;11.010;2023-03-11T08:09:40;3.20;99.90
16999;DHT22;10211;49.476;11.010;2023-03-11T08:12:08;3.30;99.90
16999;DHT22;10211;49.476;11.010;2023-03-11T08:14:35;3.40;99.90
16999;DHT22;10211;49.476;11.010;2023-03-11T08:17:03;3.70;99.90
16999;DHT22;10211;49.476;11.010;2023-03-11T08:19:30;4.00;99.90
16999;DHT22;10211;49.476;11.010;2023-03-11T08:21:57;3.90;99.90
16999;DHT22;10211;49.476;11.010;2023-03-11T08:24:26;3.50;99.90
16999;DHT22;10211;49.476;11.010;2023-03-11T08:26:52;3.50;99.90
16999;DHT22;10211;49.476;11.010;2023-03-11T08:29:21;3.50;99.90
16999;DHT22;10211;49.476;11.010;2023-03-11T08:31:48;3.60;99.90
16999;DHT22;10211;49.476;11.010;2023-03-11T08:34:14;3.80;99.90
16999;DHT22;10211;49.476;11.010;2023-03-11T08:36:42;4.00;99.90
16999;DHT22;10211;49.476;11.010;2023-03-11T08:39:09;4.10;99.90
16999;DHT22;10211;49.476;11.010;2023-03-11T08:41:36;4.90;99.90
16999;DHT22;10211;49.476;11.010;2023-03-11T08:44:03;5.80;99.90
16999;DHT22;10211;49.476;11.010;2023-03-11T08:46:34;6.20;98.40
16999;DHT22;10211;49.476;11.010;2023-03-11T08:49:01;6.30;96.30
16999;DHT22;10211;49.476;11.010;2023-03-11T08:51:30;5.90;94.90
16999;DHT22;10211;49.476;11.010;2023-03-11T08:53:57;5.30;95.30
16999;DHT22;10211;49.476;11.010;2023-03-11T08:56:24;5.00;96.50
16999;DHT22;10211;49.476;11.010;2023-03-11T08:58:51;4.80;97.20
16999;DHT22;10211;49.476;11.010;2023-03-11T09:01:17;4.70;96.70
16999;DHT22;10211;49.476;11.010;2023-03-11T09:03:46;4.80;96.70
16999;DHT22;10211;49.476;11.010;2023-03-11T09:06:14;4.90;94.60
16999;DHT22;10211;49.476;11.010;2023-03-11T09:08:41;5.00;95.30
16999;DHT22;10211;49.476;11.010;2023-03-11T09:11:08;5.30;95.50
16999;DHT22;10211;49.476;11.010;2023-03-11T09:13:37;5.60;94.70
16999;DHT22;10211;49.476;11.010;2023-03-11T09:16:06;5.60;93.20
16999;DHT22;10211;49.476;11.010;2023-03-11T09:18:32;5.90;93.40
16999;DHT22;10211;49.476;11.010;2023-03-11T09:21:00;7.60;91.80
16999;DHT22;10211;49.476;11.010;2023-03-11T09:23:27;8.50;88.70
16999;DHT22;10211;49.476;11.010;2023-03-11T09:25:54;7.90;88.20
16999;DHT22;10211;49.476;11.010;2023-03-11T09:28:21;7.10;90.40
16999;DHT22;10211;49.476;11.010;2023-03-11T09:30:47;6.00;91.30
16999;DHT22;10211;49.476;11.010;2023-03-11T09:33:14;5.10;92.30
16999;DHT22;10211;49.476;11.010;2023-03-11T09:35:41;4.50;93.70
16999;DHT22;10211;49.476;11.010;2023-03-11T09:38:09;4.20;95.10
16999;DHT22;10211;49.476;11.010;2023-03-11T09:40:45;3.90;95.00
16999;DHT22;10211;49.476;11.010;2023-03-11T09:43:22;4.00;94.80
16999;DHT22;10211;49.476;11.010;2023-03-11T09:45:56;4.20;95.10
16999;DHT22;10211;49.476;11.010;2023-03-11T09:48:31;4.50;94.10
16999;DHT22;10211;49.476;11.010;2023-03-11T09:51:02;4.50;92.80
16999;DHT22;10211;49.476;11.010;2023-03-11T09:53:40;4.50;93.00
16999;DHT22;10211;49.476;11.010;2023-03-11T09:56:09;4.40;93.40
16999;DHT22;10211;49.476;11.010;2023-03-11T09:58:39;3.90;94.70
16999;DHT22;10211;49.476;11.010;2023-03-11T10:01:15;3.60;97.60
16999;DHT22;10211;49.476;11.010;2023-03-11T10:03:43;3.10;99.90
16999;DHT22;10211;49.476;11.010;2023-03-11T10:06:14;2.50;99.90
16999;DHT22;10211;49.476;11.010;2023-03-11T10:08:46;2.00;99.90
16999;DHT22;10211;49.476;11.010;2023-03-11T10:11:22;1.60;99.90
16999;DHT22;10211;49.476;11.010;2023-03-11T10:14:00;1.60;99.90
16999;DHT22;10211;49.476;11.010;2023-03-11T10:16:34;1.70;99.90
16999;DHT22;10211;49.476;11.010;2023-03-11T10:19:10;2.00;99.90
16999;DHT22;10211;49.476;11.010;2023-03-11T10:21:46;2.50;99.90
16999;DHT22;10211;49.476;11.010;2023-03-11T10:24:33;3.00;99.90
16999;DHT22;10211;49.476;11.010;2023-03-11T10:27:09;3.80;99.90
16999;DHT22;10211;49.476;11.010;2023-03-11T10:29:44;5.00;99.90
16999;DHT22;10211;49.476;11.010;2023-03-11T10:32:15;6.60;99.90
16999;DHT22;10211;49.476;11.010;2023-03-11T10:34:45;7.10;99.90
16999;DHT22;10211;49.476;11.010;2023-03-11T10:37:17;6.40;99.90
16999;DHT22;10211;49.476;11.010;2023-03-11T10:39:47;5.50;99.90
16999;DHT22;10211;49.476;11.010;2023-03-11T10:42:17;4.90;99.90
16999;DHT22;10211;49.476;11.010;2023-03-11T10:44:45;4.40;99.90
16999;DHT22;10211;49.476;11.010;2023-03-11T10:47:15;4.30;99.90
16999;DHT22;10211;49.476;11.010;2023-03-11T10:49:43;4.30;99.90
16999;DHT22;10211;49.476;11.010;2023-03-11T10:52:09;4.50;99.90
16999;DHT22;10211;49.476;11.010;2023-03-11T10:54:38;4.90;99.90
16999;DHT22;10211;49.476;11.010;2023-03-11T10:57:22;5.40;99.90
16999;DHT22;10211;49.476;11.010;2023-03-11T10:59:51;5.70;99.90
16999;DHT22;10211;49.476;11.010;2023-03-11T11:02:23;6.30;99.90
16999;DHT22;10211;49.476;11.010;2023-03-11T11:05:04;9.50;94.00
16999;DHT22;10211;49.476;11.010;2023-03-11T11:07:33;13.10;78.10
16999;DHT22;10211;49.476;11.010;2023-03-11T11:10:16;13.50;65.30
16999;DHT22;10211;49.476;11.010;2023-03-11T11:12:53;12.60;67.40
16999;DHT22;10211;49.476;11.010;2023-03-11T11:15:22;11.40;67.70
16999;DHT22;10211;49.476;11.010;2023-03-11T11:17:49;10.30;69.90
16999;DHT22;10211;49.476;11.010;2023-03-11T11:20:18;9.20;71.80
16999;DHT22;10211;49.476;11.010;2023-03-11T11:22:51;8.00;74.20
16999;DHT22;10211;49.476;11.010;2023-03-11T11:25:27;7.60;76.90
16999;DHT22;10211;49.476;11.010;2023-03-11T11:27:58;6.90;77.30
16999;DHT22;10211;49.476;11.010;2023-03-11T11:30:26;6.60;79.90
16999;DHT22;10211;49.476;11.010;2023-03-11T11:32:53;6.40;81.00
16999;DHT22;10211;49.476;11.010;2023-03-11T11:35:22;6.20;82.50
16999;DHT22;10211;49.476;11.010;2023-03-11T11:37:50;6.30;83.60
16999;DHT22;10211;49.476;11.010;2023-03-11T11:40:26;6.60;82.70
16999;DHT22;10211;49.476;11.010;2023-03-11T11:42:58;6.70;82.60
16999;DHT22;10211;49.476;11.010;2023-03-11T11:45:30;6.90;80.10
16999;DHT22;10211;49.476;11.010;2023-03-11T11:48:02;6.80;80.40
16999;DHT22;10211;49.476;11.010;2023-03-11T11:50:33;6.80;79.70
16999;DHT22;10211;49.476;11.010;2023-03-11T11:53:08;7.00;79.60
16999;DHT22;10211;49.476;11.010;2023-03-11T11:55:40;7.20;79.10
16999;DHT22;10211;49.476;11.010;2023-03-11T11:58:11;8.40;78.70
16999;DHT22;10211;49.476;11.010;2023-03-11T12:00:43;10.00;71.80
16999;DHT22;10211;49.476;11.010;2023-03-11T12:03:24;10.30;69.20
16999;DHT22;10211;49.476;11.010;2023-03-11T12:05:56;10.40;69.10
16999;DHT22;10211;49.476;11.010;2023-03-11T12:08:27;9.80;71.70
16999;DHT22;10211;49.476;11.010;2023-03-11T12:11:02;9.30;74.30
16999;DHT22;10211;49.476;11.010;2023-03-11T12:13:47;8.90;75.50
16999;DHT22;10211;49.476;11.010;2023-03-11T12:16:22;8.60;76.40
16999;DHT22;10211;49.476;11.010;2023-03-11T12:18:56;8.30;77.80
16999;DHT22;10211;49.476;11.010;2023-03-11T12:21:37;8.10;78.50
16999;DHT22;10211;49.476;11.010;2023-03-11T12:24:28;7.60;79.10
16999;DHT22;10211;49.476;11.010;2023-03-11T12:27:00;7.10;79.80
16999;DHT22;10211;49.476;11.010;2023-03-11T12:29:32;6.60;80.70
16999;DHT22;10211;49.476;11.010;2023-03-11T12:32:00;6.10;81.70
16999;DHT22;10211;49.476;11.010;2023-03-11T12:34:28;5.90;82.60
16999;DHT22;10211;49.476;11.010;2023-03-11T12:36:59;5.70;84.20
16999;DHT22;10211;49.476;11.010;2023-03-11T12:39:29;5.60;85.10
16999;DHT22;10211;49.476;11.010;2023-03-11T12:42:17;5.40;85.10
16999;DHT22;10211;49.476;11.010;2023-03-11T12:44:46;5.50;86.10
16999;DHT22;10211;49.476;11.010;2023-03-11T12:47:23;5.40;85.10
16999;DHT22;10211;49.476;11.010;2023-03-11T12:49:53;5.40;85.10
16999;DHT22;10211;49.476;11.010;2023-03-11T12:52:26;5.40;84.80
16999;DHT22;10211;49.476;11.010;2023-03-11T12:55:30;5.30;85.90
16999;DHT22;10211;49.476;11.010;2023-03-11T12:58:16;5.50;85.00
16999;DHT22;10211;49.476;11.010;2023-03-11T13:01:02;5.60;84.20
16999;DHT22;10211;49.476;11.010;2023-03-11T13:03:39;5.30;83.90
16999;DHT22;10211;49.476;11.010;2023-03-11T13:08:57;5.20;85.00
16999;DHT22;10211;49.476;11.010;2023-03-11T13:11:33;4.90;85.60
16999;DHT22;10211;49.476;11.010;2023-03-11T13:14:22;4.70;86.70
16999;DHT22;10211;49.476;11.010;2023-03-11T13:16:53;4.40;87.10
16999;DHT22;10211;49.476;11.010;2023-03-11T13:19:35;4.10;88.10
16999;DHT22;10211;49.476;11.010;2023-03-11T13:22:04;4.00;88.20
16999;DHT22;10211;49.476;11.010;2023-03-11T13:24:48;4.00;87.10
16999;DHT22;10211;49.476;11.010;2023-03-11T13:27:30;3.90;87.40
16999;DHT22;10211;49.476;11.010;2023-03-11T13:30:05;3.70;88.60
16999;DHT22;10211;49.476;11.010;2023-03-11T13:35:45;3.60;89.60
16999;DHT22;10211;49.476;11.010;2023-03-11T13:41:30;3.70;89.10
16999;DHT22;10211;49.476;11.010;2023-03-11T13:44:02;3.70;86.30
16999;DHT22;10211;49.476;11.010;2023-03-11T13:46:36;3.80;85.60
16999;DHT22;10211;49.476;11.010;2023-03-11T13:49:08;3.90;85.80
16999;DHT22;10211;49.476;11.010;2023-03-11T13:51:41;4.00;86.00
16999;DHT22;10211;49.476;11.010;2023-03-11T13:54:25;4.20;85.40
16999;DHT22;10211;49.476;11.010;2023-03-11T13:56:56;4.50;84.50
16999;DHT22;10211;49.476;11.010;2023-03-11T13:59:25;4.70;83.60
16999;DHT22;10211;49.476;11.010;2023-03-11T14:01:54;4.60;82.90
16999;DHT22;10211;49.476;11.010;2023-03-11T14:04:26;4.60;83.10
16999;DHT22;10211;49.476;11.010;2023-03-11T14:06:53;4.60;82.80
16999;DHT22;10211;49.476;11.010;2023-03-11T14:09:22;4.60;83.30
16999;DHT22;10211;49.476;11.010;2023-03-11T14:11:51;4.50;84.00
16999;DHT22;10211;49.476;11.010;2023-03-11T14:14:42;4.40;84.70
16999;DHT22;10211;49.476;11.010;2023-03-11T14:17:13;4.30;85.80
16999;DHT22;10211;49.476;11.010;2023-03-11T14:19:42;4.20;86.30
16999;DHT22;10211;49.476;11.010;2023-03-11T14:22:09;4.10;86.20
16999;DHT22;10211;49.476;11.010;2023-03-11T14:24:37;4.00;87.20
16999;DHT22;10211;49.476;11.010;2023-03-11T14:27:08;4.00;87.50
16999;DHT22;10211;49.476;11.010;2023-03-11T14:29:36;4.00;87.80
16999;DHT22;10211;49.476;11.010;2023-03-11T14:32:24;4.20;87.10
16999;DHT22;10211;49.476;11.010;2023-03-11T14:34:52;4.20;86.80
16999;DHT22;10211;49.476;11.010;2023-03-11T14:37:25;4.40;85.80
16999;DHT22;10211;49.476;11.010;2023-03-11T14:39:52;4.50;86.00
16999;DHT22;10211;49.476;11.010;2023-03-11T14:42:22;4.90;85.70
16999;DHT22;10211;49.476;11.010;2023-03-11T14:44:54;5.30;85.40
16999;DHT22;10211;49.476;11.010;2023-03-11T14:47:31;5.70;83.30
16999;DHT22;10211;49.476;11.010;2023-03-11T14:50:00;6.00;82.60
16999;DHT22;10211;49.476;11.010;2023-03-11T14:52:33;6.10;81.80
16999;DHT22;10211;49.476;11.010;2023-03-11T14:55:04;6.10;80.50
16999;DHT22;10211;49.476;11.010;2023-03-11T14:57:35;5.70;80.20
16999;DHT22;10211;49.476;11.010;2023-03-11T15:00:04;5.40;81.40
16999;DHT22;10211;49.476;11.010;2023-03-11T15:02:39;5.30;81.90
16999;DHT22;10211;49.476;11.010;2023-03-11T15:05:15;5.30;82.90
16999;DHT22;10211;49.476;11.010;2023-03-11T15:07:44;5.40;82.60
16999;DHT22;10211;49.476;11.010;2023-03-11T15:10:12;5.40;82.50
16999;DHT22;10211;49.476;11.010;2023-03-11T15:12:40;5.20;82.30
16999;DHT22;10211;49.476;11.010;2023-03-11T15:15:22;5.00;83.20
16999;DHT22;10211;49.476;11.010;2023-03-11T15:17:53;4.90;83.80
16999;DHT22;10211;49.476;11.010;2023-03-11T15:20:27;4.70;83.90
16999;DHT22;10211;49.476;11.010;2023-03-11T15:22:57;4.70;84.60
16999;DHT22;10211;49.476;11.010;2023-03-11T15:25:26;4.50;85.10
16999;DHT22;10211;49.476;11.010;2023-03-11T15:27:53;4.50;85.90
16999;DHT22;10211;49.476;11.010;2023-03-11T15:30:23;4.50;86.50
16999;DHT22;10211;49.476;11.010;2023-03-11T15:32:51;4.40;87.60
16999;DHT22;10211;49.476;11.010;2023-03-11T15:35:19;4.40;87.80
16999;DHT22;10211;49.476;11.010;2023-03-11T15:37:49;4.40;86.90
16999;DHT22;10211;49.476;11.010;2023-03-11T15:40:20;4.30;87.70
16999;DHT22;10211;49.476;11.010;2023-03-11T15:42:49;4.30;88.40
16999;DHT22;10211;49.476;11.010;2023-03-11T15:45:17;4.20;88.10
16999;DHT22;10211;49.476;11.010;2023-03-11T15:47:46;4.10;88.50
16999;DHT22;10211;49.476;11.010;2023-03-11T15:50:18;4.10;88.30
16999;DHT22;10211;49.476;11.010;2023-03-11T15:52:49;4.10;89.20
16999;DHT22;10211;49.476;11.010;2023-03-11T15:55:17;4.10;89.30